Time;durP1;ratioP1;P1;durP2;ratioP2;P2;SDS_P1;SDS_P2;PMS_P1;PMS_P2;Temp;Humidity;BMP_temperature;BMP_pressure;BME280_temperature;BME280_humidity;BME280_pressure;Samples;Min_cycle;Max_cycle;Signal;HPM_P1;HPM_P2
2023/09/18 00:01:49;;;;;;;3.70;1.50;;;21.80;99.90;;;;;;5057635;28;21116;-81
2023/09/18 00:04:15;;;;;;;2.33;1.30;;;21.80;99.90;;;;;;5075100;28;20728;-80
2023/09/18 00:06:41;;;;;;;7.03;4.55;;;21.80;99.90;;;;;;5051233;28;20534;-81
2023/09/18 00:09:11;;;;;;;12.05;7.97;;;21.80;99.90;;;;;;5075377;28;20070;-80
2023/09/18 00:11:37;;;;;;;5.55;2.60;;;21.80;99.90;;;;;;5075010;28;20021;-82
2023/09/18 00:14:03;;;;;;;4.30;1.42;;;21.80;99.90;;;;;;5068140;28;20107;-82
2023/09/18 00:16:29;;;;;;;3.85;1.77;;;21.80;99.90;;;;;;5057970;28;20029;-83
2023/09/18 00:18:54;;;;;;;4.10;1.45;;;21.80;99.90;;;;;;5057821;28;20025;-79
2023/09/18 00:21:20;;;;;;;3.85;1.60;;;21.80;99.90;;;;;;5057333;28;20020;-81
2023/09/18 00:23:46;;;;;;;6.15;1.65;;;21.70;99.90;;;;;;5057059;28;20029;-81
2023/09/18 00:26:12;;;;;;;2.22;1.52;;;21.70;99.90;;;;;;5057831;28;20078;-81
2023/09/18 00:28:37;;;;;;;2.95;1.80;;;21.60;99.90;;;;;;5057877;28;20074;-81
2023/09/18 00:31:03;;;;;;;2.88;1.60;;;21.70;99.90;;;;;;5058136;28;20020;-81
2023/09/18 00:33:28;;;;;;;3.47;1.65;;;21.60;99.90;;;;;;5057315;28;20035;-83
2023/09/18 00:35:54;;;;;;;4.63;1.48;;;21.60;99.90;;;;;;5075236;28;20025;-80
2023/09/18 00:38:20;;;;;;;2.53;1.50;;;21.60;99.90;;;;;;5057344;28;20029;-81
2023/09/18 00:40:46;;;;;;;4.75;1.60;;;21.50;99.90;;;;;;5068757;28;20076;-81
2023/09/18 00:43:11;;;;;;;4.03;1.70;;;21.60;99.90;;;;;;5093732;28;20032;-81
2023/09/18 00:45:44;;;;;;;3.17;1.60;;;21.60;99.90;;;;;;5093574;28;20031;-82
2023/09/18 00:48:11;;;;;;;4.40;1.80;;;21.60;99.90;;;;;;5095356;28;20032;-81
2023/09/18 00:50:38;;;;;;;3.50;1.80;;;21.60;99.90;;;;;;5076522;28;20055;-81
2023/09/18 00:53:06;;;;;;;4.40;1.77;;;21.60;99.90;;;;;;5095193;28;20510;-81
2023/09/18 00:55:32;;;;;;;3.42;1.90;;;21.70;99.90;;;;;;5094976;28;20027;-85
2023/09/18 00:57:58;;;;;;;2.58;1.50;;;21.80;99.90;;;;;;5093810;28;20021;-81
2023/09/18 01:00:24;;;;;;;6.97;1.80;;;21.70;99.90;;;;;;5077461;28;20024;-80
2023/09/18 01:02:50;;;;;;;4.80;1.55;;;21.80;99.90;;;;;;5093690;28;20498;-80
2023/09/18 01:05:19;;;;;;;5.22;1.60;;;21.80;99.90;;;;;;5094209;28;20028;-81
2023/09/18 01:07:46;;;;;;;4.38;1.65;;;21.80;99.90;;;;;;5094821;28;20465;-81
2023/09/18 01:10:16;;;;;;;6.82;2.20;;;21.80;99.90;;;;;;5093897;28;20032;-81
2023/09/18 01:12:47;;;;;;;5.18;2.10;;;21.90;99.90;;;;;;5076523;28;20035;-82
2023/09/18 01:15:16;;;;;;;;;;;21.80;99.90;;;;;;5077858;28;20081;-81
2023/09/18 01:17:43;;;;;;;6.93;2.08;;;21.80;99.90;;;;;;5076435;28;19911;-80
2023/09/18 01:20:12;;;;;;;4.93;2.22;;;21.70;99.90;;;;;;5076660;28;20031;-81
2023/09/18 01:22:38;;;;;;;5.50;2.22;;;21.60;99.90;;;;;;5076347;28;20122;-82
2023/09/18 01:25:05;;;;;;;4.97;1.90;;;21.70;99.90;;;;;;5094613;28;20074;-81
2023/09/18 01:27:31;;;;;;;4.45;1.80;;;21.60;99.90;;;;;;5076461;28;20035;-81
2023/09/18 01:29:57;;;;;;;5.55;1.90;;;21.60;99.90;;;;;;5094396;28;20377;-81
2023/09/18 01:32:27;;;;;;;6.45;2.50;;;21.60;99.90;;;;;;5094623;28;20512;-82
2023/09/18 01:34:55;;;;;;;5.18;2.53;;;21.70;99.90;;;;;;5093266;28;20020;-82
2023/09/18 01:37:24;;;;;;;7.57;2.78;;;21.60;99.90;;;;;;5076626;28;20451;-82
2023/09/18 01:39:52;;;;;;;6.40;2.33;;;21.60;99.90;;;;;;5076287;28;20508;-82
2023/09/18 01:42:18;;;;;;;8.43;2.40;;;21.60;99.90;;;;;;5094474;28;20526;-82
2023/09/18 01:44:44;;;;;;;14.02;2.63;;;21.60;99.90;;;;;;5094202;28;20023;-82
2023/09/18 01:47:15;;;;;;;6.65;2.50;;;21.60;99.90;;;;;;5094329;28;20032;-82
2023/09/18 01:49:42;;;;;;;4.25;2.13;;;21.60;99.90;;;;;;5094002;28;20104;-83
2023/09/18 01:52:08;;;;;;;8.65;2.70;;;21.60;99.90;;;;;;5093723;28;20046;-82
2023/09/18 01:54:34;;;;;;;7.82;2.50;;;21.70;99.90;;;;;;5094271;28;20056;-84
2023/09/18 01:57:01;;;;;;;6.18;2.72;;;21.70;99.90;;;;;;5076113;28;20122;-81
2023/09/18 01:59:26;;;;;;;4.57;2.47;;;21.70;99.90;;;;;;5076294;28;20029;-81
2023/09/18 02:01:53;;;;;;;6.22;2.45;;;21.70;99.90;;;;;;5092684;28;20031;-82
2023/09/18 02:04:20;;;;;;;5.95;2.00;;;21.70;99.90;;;;;;5076573;28;20024;-82
2023/09/18 02:06:47;;;;;;;5.47;2.53;;;21.70;99.90;;;;;;5076006;28;20028;-81
2023/09/18 02:09:13;;;;;;;5.78;2.85;;;21.70;99.90;;;;;;5076501;28;20036;-82
2023/09/18 02:11:42;;;;;;;4.03;2.58;;;21.50;99.90;;;;;;5076596;28;20493;-84
2023/09/18 02:14:09;;;;;;;7.15;2.58;;;21.50;99.90;;;;;;5094222;28;20102;-82
2023/09/18 02:16:36;;;;;;;8.00;2.88;;;21.50;99.90;;;;;;5071718;28;20032;-83
2023/09/18 02:19:03;;;;;;;11.48;3.28;;;21.40;99.90;;;;;;5066557;28;20048;-82
2023/09/18 02:21:30;;;;;;;6.85;2.55;;;21.40;99.90;;;;;;5078928;28;20032;-83
2023/09/18 02:23:56;;;;;;;8.00;2.88;;;21.50;99.90;;;;;;5067428;28;20029;-82
2023/09/18 02:26:23;;;;;;;11.25;2.92;;;21.40;99.90;;;;;;5065133;28;20032;-82
2023/09/18 02:28:54;;;;;;;6.93;2.80;;;21.30;99.90;;;;;;5082445;28;20527;-82
2023/09/18 02:31:20;;;;;;;7.60;2.80;;;21.30;99.90;;;;;;5080508;28;20043;-83
2023/09/18 02:33:46;;;;;;;5.65;2.72;;;21.30;99.90;;;;;;5059388;28;20044;-82
2023/09/18 02:36:12;;;;;;;5.60;2.40;;;21.30;99.90;;;;;;5056044;28;20462;-80
2023/09/18 02:38:38;;;;;;;5.28;2.40;;;21.30;99.90;;;;;;5058682;28;20024;-83
2023/09/18 02:41:03;;;;;;;5.00;2.25;;;21.30;99.90;;;;;;5059473;28;20056;-82
2023/09/18 02:43:29;;;;;;;6.38;2.40;;;21.30;99.90;;;;;;5077778;28;20465;-82
2023/09/18 02:45:55;;;;;;;4.63;2.28;;;21.30;99.90;;;;;;5059391;28;20078;-82
2023/09/18 02:48:20;;;;;;;4.00;2.22;;;21.20;99.90;;;;;;5059830;28;20084;-82
2023/09/18 02:50:46;;;;;;;4.15;2.15;;;21.20;99.90;;;;;;5076933;28;20045;-83
2023/09/18 02:53:18;;;;;;;3.80;2.10;;;21.30;99.90;;;;;;5060027;28;20078;-82
2023/09/18 02:55:43;;;;;;;6.43;2.00;;;21.30;99.90;;;;;;5059111;28;20090;-83
2023/09/18 02:58:10;;;;;;;6.15;2.38;;;21.30;99.90;;;;;;5077264;28;20032;-83
2023/09/18 03:00:42;;;;;;;5.72;2.10;;;21.20;99.90;;;;;;5077066;28;20063;-82
2023/09/18 03:03:08;;;;;;;9.32;2.45;;;21.20;99.90;;;;;;5059668;28;20051;-82
2023/09/18 03:05:34;;;;;;;6.00;2.22;;;21.20;99.90;;;;;;5077126;28;20372;-82
2023/09/18 03:07:59;;;;;;;5.20;2.00;;;21.30;99.90;;;;;;5058776;28;20109;-81
2023/09/18 03:10:25;;;;;;;8.48;1.88;;;21.20;99.90;;;;;;5059112;28;20029;-81
2023/09/18 03:12:50;;;;;;;4.63;1.98;;;21.20;99.90;;;;;;5058701;28;20028;-82
2023/09/18 03:15:16;;;;;;;10.07;2.60;;;21.20;99.90;;;;;;5059183;28;20017;-81
2023/09/18 03:17:42;;;;;;;6.80;2.10;;;21.20;99.90;;;;;;5076426;28;20458;-85
2023/09/18 03:20:08;;;;;;;9.30;2.20;;;21.20;99.90;;;;;;5059246;28;20024;-82
2023/09/18 03:22:34;;;;;;;8.38;2.55;;;21.10;99.90;;;;;;5059088;28;20029;-82
2023/09/18 03:25:00;;;;;;;5.70;2.15;;;21.10;99.90;;;;;;5076586;28;20028;-82
2023/09/18 03:27:28;;;;;;;8.98;2.20;;;21.10;99.90;;;;;;5076757;28;20036;-82
2023/09/18 03:29:55;;;;;;;9.13;2.53;;;21.20;99.90;;;;;;5058517;28;20028;-82
2023/09/18 03:32:20;;;;;;;6.95;2.10;;;21.20;99.90;;;;;;5058809;28;20200;-82
2023/09/18 03:34:46;;;;;;;3.88;2.20;;;21.10;99.90;;;;;;5076099;28;20099;-82
2023/09/18 03:37:12;;;;;;;7.68;2.58;;;21.10;99.90;;;;;;5058547;28;20472;-81
2023/09/18 03:39:37;;;;;;;11.60;2.15;;;21.10;99.90;;;;;;5076457;28;20036;-81
2023/09/18 03:42:03;;;;;;;8.90;2.20;;;21.20;99.90;;;;;;5058264;28;20381;-82
2023/09/18 03:44:28;;;;;;;6.80;2.25;;;21.20;99.90;;;;;;5058640;28;20020;-82
2023/09/18 03:46:54;;;;;;;9.07;2.42;;;21.10;99.90;;;;;;5076005;28;20024;-82
2023/09/18 03:49:20;;;;;;;6.88;2.65;;;21.10;99.90;;;;;;5057736;28;20032;-80
2023/09/18 03:51:46;;;;;;;9.77;2.60;;;21.00;99.90;;;;;;5057610;28;20106;-82
2023/09/18 03:54:11;;;;;;;10.05;2.45;;;20.80;99.90;;;;;;5058486;28;20385;-82
2023/09/18 03:56:37;;;;;;;4.47;1.83;;;20.70;99.90;;;;;;5057990;28;20051;-82
2023/09/18 03:59:04;;;;;;;6.18;1.90;;;20.60;99.90;;;;;;5057944;28;20028;-82
2023/09/18 04:01:30;;;;;;;8.60;2.35;;;20.50;99.90;;;;;;5058256;28;20047;-82
2023/09/18 04:03:56;;;;;;;9.50;2.20;;;20.40;99.90;;;;;;5058286;28;20021;-83
2023/09/18 04:06:24;;;;;;;8.15;1.90;;;20.40;99.90;;;;;;5076309;28;20033;-82
2023/09/18 04:08:50;;;;;;;10.77;1.65;;;20.50;99.90;;;;;;5058080;28;20043;-82
2023/09/18 04:11:16;;;;;;;9.90;1.80;;;20.40;99.90;;;;;;5058080;28;20032;-82
2023/09/18 04:13:41;;;;;;;8.10;2.45;;;20.40;99.90;;;;;;5058255;28;20024;-85
2023/09/18 04:16:07;;;;;;;8.88;1.55;;;20.40;99.90;;;;;;5075774;28;20032;-82
2023/09/18 04:18:33;;;;;;;7.07;1.50;;;20.40;99.90;;;;;;5076116;28;20024;-84
2023/09/18 04:20:59;;;;;;;6.07;1.33;;;20.40;99.90;;;;;;5057331;28;20028;-82
2023/09/18 04:23:27;;;;;;;7.35;1.55;;;20.40;99.90;;;;;;5075483;28;20040;-82
2023/09/18 04:25:54;;;;;;;5.70;1.45;;;20.40;99.90;;;;;;5057541;28;20115;-83
2023/09/18 04:28:22;;;;;;;7.53;1.85;;;20.30;99.90;;;;;;5058358;28;20052;-82
2023/09/18 04:30:48;;;;;;;7.05;2.00;;;20.40;99.90;;;;;;5057172;28;20358;-82
2023/09/18 04:33:14;;;;;;;4.75;1.80;;;20.30;99.90;;;;;;5058175;28;20028;-82
2023/09/18 04:35:40;;;;;;;6.07;1.70;;;20.40;99.90;;;;;;5057799;28;20036;-82
2023/09/18 04:38:08;;;;;;;3.33;1.45;;;20.40;99.90;;;;;;5074868;28;20320;-83
2023/09/18 04:40:34;;;;;;;4.28;2.00;;;20.40;99.90;;;;;;5057281;28;20028;-82
2023/09/18 04:43:00;;;;;;;8.25;2.15;;;20.40;99.90;;;;;;5074658;28;20078;-82
2023/09/18 04:45:26;;;;;;;10.23;2.05;;;20.50;99.90;;;;;;5057569;28;20032;-82
2023/09/18 04:47:53;;;;;;;10.93;1.90;;;20.50;99.90;;;;;;5074846;28;20029;-82
2023/09/18 04:50:18;;;;;;;4.95;1.83;;;20.40;99.90;;;;;;5057478;28;20045;-82
2023/09/18 04:52:44;;;;;;;5.80;1.70;;;20.40;99.90;;;;;;5057350;28;20099;-84
2023/09/18 04:55:11;;;;;;;8.32;2.50;;;20.40;99.90;;;;;;5057138;28;20123;-83
2023/09/18 04:57:37;;;;;;;14.98;2.25;;;20.40;99.90;;;;;;5057674;28;20093;-83
2023/09/18 05:00:07;;;;;;;6.53;1.50;;;20.40;99.90;;;;;;5056768;28;20607;-81
2023/09/18 05:02:34;;;;;;;6.47;1.55;;;20.40;99.90;;;;;;5073979;28;20081;-82
2023/09/18 05:05:00;;;;;;;5.90;1.90;;;20.40;99.90;;;;;;5077356;28;20405;-82
2023/09/18 05:07:26;;;;;;;9.02;3.00;;;20.40;99.90;;;;;;5095739;28;20028;-81
2023/09/18 05:09:52;;;;;;;6.28;1.98;;;20.50;99.90;;;;;;5076740;28;20106;-82
2023/09/18 05:12:18;;;;;;;4.28;1.55;;;20.50;99.90;;;;;;5059302;28;20036;-84
2023/09/18 05:14:43;;;;;;;6.22;2.15;;;20.40;99.90;;;;;;5065977;28;20025;-84
2023/09/18 05:17:13;;;;;;;11.10;2.35;;;20.40;99.90;;;;;;5071789;28;20398;-81
2023/09/18 05:19:40;;;;;;;7.75;1.67;;;20.50;99.90;;;;;;5057299;28;20074;-82
2023/09/18 05:22:06;;;;;;;8.63;2.15;;;20.50;99.90;;;;;;5074386;28;20103;-82
2023/09/18 05:24:32;;;;;;;10.55;2.25;;;20.50;99.90;;;;;;5075084;28;20066;-82
2023/09/18 05:26:57;;;;;;;10.35;2.38;;;20.50;99.90;;;;;;5056738;28;20115;-83
2023/09/18 05:29:24;;;;;;;7.28;1.70;;;20.50;99.90;;;;;;5074442;28;20389;-82
2023/09/18 05:31:49;;;;;;;8.63;2.45;;;20.60;99.90;;;;;;5089340;28;20031;-82
2023/09/18 05:34:15;;;;;;;10.85;2.22;;;20.60;99.90;;;;;;5068776;28;20024;-82
2023/09/18 05:36:41;;;;;;;11.68;1.92;;;20.60;99.90;;;;;;5056895;28;20039;-82
2023/09/18 05:39:12;;;;;;;8.35;2.17;;;20.50;99.90;;;;;;5055944;28;20032;-82
2023/09/18 05:41:41;;;;;;;5.93;1.90;;;20.50;99.90;;;;;;5074003;28;20040;-82
2023/09/18 05:44:07;;;;;;;6.03;1.92;;;20.60;99.90;;;;;;5056606;28;20073;-88
2023/09/18 05:46:36;;;;;;;8.57;1.92;;;20.60;99.90;;;;;;5063869;28;20034;-83
2023/09/18 05:49:03;;;;;;;9.95;2.25;;;20.60;99.90;;;;;;5054244;28;20033;-83
2023/09/18 05:51:29;;;;;;;5.88;1.77;;;20.60;99.90;;;;;;5076699;28;20153;-82
2023/09/18 05:53:55;;;;;;;6.30;2.00;;;20.60;99.90;;;;;;5074576;28;20028;-83
2023/09/18 05:56:20;;;;;;;5.50;1.80;;;20.50;99.90;;;;;;5074260;28;20039;-83
2023/09/18 05:58:46;;;;;;;7.93;1.90;;;20.50;99.90;;;;;;5083374;28;20028;-85
2023/09/18 06:01:12;;;;;;;13.13;1.90;;;20.50;99.90;;;;;;5079550;28;20090;-82
2023/09/18 06:03:37;;;;;;;9.52;2.25;;;20.60;99.90;;;;;;5074104;28;20386;-82
2023/09/18 06:06:04;;;;;;;5.90;2.00;;;20.50;99.90;;;;;;5055800;28;20033;-83
2023/09/18 06:08:30;;;;;;;7.95;1.92;;;20.50;99.90;;;;;;5063078;28;20051;-82
2023/09/18 06:10:56;;;;;;;8.77;2.53;;;20.50;99.90;;;;;;5092184;28;20118;-83
2023/09/18 06:13:23;;;;;;;10.68;2.00;;;20.60;99.90;;;;;;5084954;28;20108;-82
2023/09/18 06:15:50;;;;;;;5.75;1.92;;;20.50;99.90;;;;;;5079199;28;20034;-85
2023/09/18 06:18:16;;;;;;;8.95;2.13;;;20.50;99.90;;;;;;5062687;28;20035;-81
2023/09/18 06:20:43;;;;;;;10.95;2.42;;;20.40;99.90;;;;;;5062835;28;20042;-81
2023/09/18 06:23:09;;;;;;;7.78;1.70;;;20.40;99.90;;;;;;5062258;28;20051;-82
2023/09/18 06:25:34;;;;;;;10.73;2.45;;;20.40;99.90;;;;;;5062911;28;20029;-84
2023/09/18 06:28:02;;;;;;;5.78;1.90;;;20.40;99.90;;;;;;5064884;28;20032;-84
2023/09/18 06:30:30;;;;;;;5.30;1.67;;;20.40;99.90;;;;;;5092087;28;20028;-83
2023/09/18 06:32:56;;;;;;;5.72;1.80;;;20.40;99.90;;;;;;5090103;28;20107;-82
2023/09/18 06:35:22;;;;;;;6.57;1.88;;;20.40;99.90;;;;;;5085474;28;20104;-84
2023/09/18 06:37:48;;;;;;;5.47;1.55;;;20.40;99.90;;;;;;5065823;28;20028;-82
2023/09/18 06:40:13;;;;;;;6.88;1.75;;;20.50;99.90;;;;;;5091930;28;20073;-82
2023/09/18 06:42:39;;;;;;;7.30;1.67;;;20.50;99.90;;;;;;5073083;28;20381;-81
2023/09/18 06:45:06;;;;;;;6.95;2.85;;;20.50;99.90;;;;;;5093406;28;20048;-83
2023/09/18 06:47:33;;;;;;;8.10;1.80;;;20.50;99.90;;;;;;5069879;28;20044;-87
2023/09/18 06:50:00;;;;;;;9.82;3.50;;;20.50;99.90;;;;;;5091620;28;20412;-85
2023/09/18 06:52:26;;;;;;;5.00;1.50;;;20.50;99.90;;;;;;5085711;28;20016;-81
2023/09/18 06:54:52;;;;;;;6.55;1.80;;;20.50;99.90;;;;;;5074678;28;20046;-83
2023/09/18 06:57:18;;;;;;;8.35;1.65;;;20.50;99.90;;;;;;5093035;28;20032;-83
2023/09/18 06:59:44;;;;;;;5.32;1.85;;;20.50;99.90;;;;;;5087756;28;20358;-82
2023/09/18 07:02:10;;;;;;;6.80;1.70;;;20.50;99.90;;;;;;5067958;28;20524;-83
2023/09/18 07:04:44;;;;;;;4.90;2.05;;;20.50;99.90;;;;;;5069631;28;20104;-82
2023/09/18 07:07:11;;;;;;;5.25;1.35;;;20.50;99.90;;;;;;5082769;28;20036;-84
2023/09/18 07:09:37;;;;;;;4.50;1.58;;;20.60;99.90;;;;;;5074044;28;20461;-85
2023/09/18 07:12:03;;;;;;;4.38;1.50;;;20.60;99.90;;;;;;5086960;28;20093;-83
2023/09/18 07:14:28;;;;;;;5.57;1.38;;;20.50;99.90;;;;;;5070328;28;20120;-83
2023/09/18 07:16:54;;;;;;;4.32;1.05;;;20.60;99.90;;;;;;5085398;28;20107;-83
2023/09/18 07:19:19;;;;;;;7.00;1.23;;;20.60;99.90;;;;;;5083866;28;20028;-82
2023/09/18 07:21:45;;;;;;;3.88;1.33;;;20.60;99.90;;;;;;5084834;28;20029;-82
2023/09/18 07:24:16;;;;;;;3.20;1.17;;;20.60;99.90;;;;;;5061866;28;20024;-82
2023/09/18 07:26:45;;;;;;;2.97;1.13;;;20.60;99.90;;;;;;5077745;28;20065;-82
2023/09/18 07:29:11;;;;;;;3.78;1.08;;;20.60;99.90;;;;;;5068382;28;20037;-81
2023/09/18 07:31:37;;;;;;;3.60;1.05;;;20.60;99.90;;;;;;5080791;28;20025;-80
2023/09/18 07:34:04;;;;;;;2.70;0.80;;;20.60;99.90;;;;;;5066996;28;20044;-80
2023/09/18 07:36:29;;;;;;;6.22;1.40;;;20.60;99.90;;;;;;5083879;28;20048;-81
2023/09/18 07:38:56;;;;;;;4.75;0.82;;;20.70;99.90;;;;;;5068017;28;20059;-83
2023/09/18 07:41:22;;;;;;;7.07;1.15;;;20.70;99.90;;;;;;5085187;28;20024;-83
2023/09/18 07:43:48;;;;;;;2.33;0.60;;;20.70;99.90;;;;;;5071897;28;20116;-85
2023/09/18 07:46:13;;;;;;;5.50;0.80;;;20.70;99.90;;;;;;5066687;28;20132;-81
2023/09/18 07:48:39;;;;;;;4.18;0.63;;;20.70;99.90;;;;;;5084235;28;20024;-83
2023/09/18 07:51:05;;;;;;;3.78;0.68;;;20.70;99.90;;;;;;5088178;28;20053;-81
2023/09/18 07:53:32;;;;;;;3.88;0.70;;;20.80;99.90;;;;;;5070582;28;20046;-84
2023/09/18 07:55:58;;;;;;;2.78;0.60;;;20.80;99.90;;;;;;5078147;28;20106;-81
2023/09/18 07:58:27;;;;;;;2.88;0.50;;;20.80;99.90;;;;;;5081115;28;20036;-82
2023/09/18 08:00:54;;;;;;;2.20;0.70;;;20.80;99.90;;;;;;5067426;28;20466;-84
2023/09/18 08:03:22;;;;;;;2.08;0.77;;;20.80;99.90;;;;;;5083162;28;20469;-81
2023/09/18 08:05:50;;;;;;;1.75;0.63;;;20.90;99.90;;;;;;5091481;28;20115;-85
2023/09/18 08:08:16;;;;;;;2.97;0.68;;;20.90;99.90;;;;;;5063976;28;20035;-84
2023/09/18 08:10:41;;;;;;;4.78;0.77;;;20.90;99.90;;;;;;5063106;28;20021;-82
2023/09/18 08:13:07;;;;;;;1.00;0.43;;;20.90;99.90;;;;;;5061587;28;20441;-81
2023/09/18 08:15:33;;;;;;;1.30;0.40;;;20.90;99.90;;;;;;5082425;28;20021;-82
2023/09/18 08:17:58;;;;;;;2.42;0.60;;;20.80;99.90;;;;;;5084742;28;20107;-85
2023/09/18 08:20:26;;;;;;;1.70;0.55;;;20.80;99.90;;;;;;5065104;28;20024;-81
2023/09/18 08:22:51;;;;;;;4.40;0.60;;;20.80;99.90;;;;;;5066327;28;20092;-86
2023/09/18 08:25:17;;;;;;;2.92;0.70;;;20.80;99.90;;;;;;5058373;28;20119;-83
2023/09/18 08:27:44;;;;;;;4.60;0.50;;;20.80;99.90;;;;;;5075812;28;20032;-82
2023/09/18 08:30:11;;;;;;;1.23;0.63;;;20.90;99.90;;;;;;5065056;28;20618;-84
2023/09/18 08:32:38;;;;;;;3.45;0.50;;;20.90;99.90;;;;;;5062404;28;20028;-83
2023/09/18 08:35:05;;;;;;;2.38;0.57;;;20.90;99.90;;;;;;5061967;28;20036;-81
2023/09/18 08:37:31;;;;;;;2.53;0.50;;;20.90;99.90;;;;;;5064678;28;20063;-81
2023/09/18 08:39:56;;;;;;;2.22;0.30;;;20.90;99.90;;;;;;5068073;28;20477;-83
2023/09/18 08:42:23;;;;;;;2.65;0.75;;;20.90;99.90;;;;;;5080197;28;20033;-82
2023/09/18 08:44:51;;;;;;;2.97;0.47;;;20.90;99.90;;;;;;5079187;28;20517;-86
2023/09/18 08:47:18;;;;;;;4.00;0.70;;;20.90;99.90;;;;;;5062122;28;20036;-81
2023/09/18 08:49:46;;;;;;;3.88;0.70;;;20.90;99.90;;;;;;5080596;28;20103;-80
2023/09/18 08:52:14;;;;;;;5.05;0.80;;;20.90;99.90;;;;;;5060304;28;20028;-82
2023/09/18 08:54:40;;;;;;;3.05;0.80;;;21.00;99.90;;;;;;5064236;28;20508;-81
2023/09/18 08:57:07;;;;;;;4.70;0.63;;;21.00;99.90;;;;;;5077823;28;20039;-82
2023/09/18 08:59:35;;;;;;;1.77;0.45;;;21.00;99.90;;;;;;5081337;28;20101;-82
2023/09/18 09:02:01;;;;;;;3.97;0.63;;;21.00;99.90;;;;;;5066444;28;20027;-82
2023/09/18 09:04:27;;;;;;;2.15;0.70;;;21.00;99.90;;;;;;5085101;28;20028;-82
2023/09/18 09:06:53;;;;;;;3.55;0.50;;;21.00;99.90;;;;;;5082057;28;20163;-85
2023/09/18 09:09:19;;;;;;;4.32;1.00;;;21.00;99.90;;;;;;5062167;28;20112;-84
2023/09/18 09:11:51;;;;;;;4.32;0.90;;;21.00;99.90;;;;;;5062076;28;20028;-82
2023/09/18 09:14:27;;;;;;;3.92;0.77;;;21.00;99.90;;;;;;5068576;28;20032;-81
2023/09/18 09:16:54;;;;;;;3.30;0.68;;;20.90;99.90;;;;;;5058420;28;20119;-81
2023/09/18 09:19:32;;;;;;;1.73;0.60;;;20.90;99.90;;;;;;5064049;28;20051;-81
2023/09/18 09:22:00;;;;;;;4.68;0.60;;;20.90;99.90;;;;;;5079932;28;20032;-84
2023/09/18 09:24:43;;;;;;;1.90;0.50;;;21.00;99.90;;;;;;5087066;28;20047;-81
2023/09/18 09:27:10;;;;;;;4.43;0.70;;;21.00;99.90;;;;;;5066361;28;20178;-82
2023/09/18 09:29:36;;;;;;;4.85;1.02;;;21.00;99.90;;;;;;5079079;28;20017;-81
2023/09/18 09:32:18;;;;;;;4.18;1.00;;;21.00;99.90;;;;;;5080757;28;20048;-81
2023/09/18 09:34:46;;;;;;;2.33;0.90;;;21.00;99.90;;;;;;5061594;28;20031;-83
2023/09/18 09:37:12;;;;;;;3.47;1.50;;;21.00;99.90;;;;;;5077193;28;20035;-83
2023/09/18 09:39:51;;;;;;;6.13;1.58;;;21.00;99.90;;;;;;5064035;28;20032;-82
2023/09/18 09:42:24;;;;;;;4.93;1.00;;;21.10;99.90;;;;;;5076575;28;20036;-83
2023/09/18 09:45:05;;;;;;;2.50;0.60;;;21.10;99.90;;;;;;5065827;28;20417;-85
2023/09/18 09:47:35;;;;;;;1.48;0.60;;;21.10;99.90;;;;;;5054302;28;20067;-81
2023/09/18 09:50:07;;;;;;;3.25;0.70;;;21.20;99.90;;;;;;5075846;28;20044;-85
2023/09/18 09:52:36;;;;;;;1.60;0.60;;;21.20;99.90;;;;;;5081602;28;20025;-82
2023/09/18 09:55:20;;;;;;;1.00;0.35;;;21.30;99.90;;;;;;5067873;28;20119;-81
2023/09/18 09:57:59;;;;;;;2.03;0.65;;;21.30;99.90;;;;;;5084854;28;20028;-83
2023/09/18 10:00:42;;;;;;;0.80;0.50;;;21.30;99.90;;;;;;5075098;28;20031;-83
2023/09/18 10:03:09;;;;;;;2.78;0.75;;;21.30;99.90;;;;;;5061884;28;20283;-82
2023/09/18 10:05:40;;;;;;;1.70;0.50;;;21.40;99.90;;;;;;5064088;28;20031;-81
2023/09/18 10:08:12;;;;;;;2.25;0.60;;;21.40;99.90;;;;;;5060878;28;20044;-82
2023/09/18 10:10:42;;;;;;;5.63;0.95;;;21.50;99.90;;;;;;5065348;28;20100;-82
2023/09/18 10:13:24;;;;;;;2.90;0.80;;;21.50;99.90;;;;;;5063992;28;20588;-83
2023/09/18 10:15:51;;;;;;;3.35;0.60;;;21.50;99.90;;;;;;5078926;28;20028;-84
2023/09/18 10:18:28;;;;;;;4.32;0.60;;;21.50;99.90;;;;;;5066609;28;20042;-82
2023/09/18 10:21:10;;;;;;;5.18;0.75;;;21.50;99.90;;;;;;5084013;28;20025;-82
2023/09/18 10:23:39;;;;;;;1.83;0.38;;;21.60;99.90;;;;;;5055825;28;20153;-83
2023/09/18 10:26:07;;;;;;;1.73;0.52;;;21.60;99.90;;;;;;5062038;28;20492;-83
2023/09/18 10:28:34;;;;;;;3.05;0.60;;;21.70;99.90;;;;;;5058822;28;20108;-82
2023/09/18 10:31:01;;;;;;;2.30;0.52;;;21.70;99.90;;;;;;5081026;28;20086;-85
2023/09/18 10:33:28;;;;;;;2.83;0.52;;;21.80;99.90;;;;;;5086655;28;20032;-83
2023/09/18 10:35:55;;;;;;;2.72;0.55;;;21.90;99.90;;;;;;5059535;28;20036;-83
2023/09/18 10:38:22;;;;;;;2.75;0.73;;;21.90;99.90;;;;;;5056660;28;20024;-83
2023/09/18 10:40:48;;;;;;;1.30;0.40;;;21.90;99.90;;;;;;5060936;28;20028;-84
2023/09/18 10:43:15;;;;;;;2.45;0.30;;;21.90;99.90;;;;;;5082546;28;20028;-83
2023/09/18 10:45:42;;;;;;;2.42;0.52;;;21.90;99.90;;;;;;5064201;28;20047;-86
2023/09/18 10:48:08;;;;;;;1.60;0.60;;;21.90;99.90;;;;;;5087177;28;20789;-83
2023/09/18 10:50:34;;;;;;;4.10;0.55;;;21.90;99.90;;;;;;5065889;28;20531;-84
2023/09/18 10:53:00;;;;;;;3.15;0.45;;;22.00;99.90;;;;;;5082001;28;20028;-82
2023/09/18 10:55:27;;;;;;;3.10;0.40;;;22.00;99.90;;;;;;5079139;28;20048;-83
2023/09/18 10:57:58;;;;;;;4.03;0.57;;;22.00;99.90;;;;;;5053395;28;20382;-83
2023/09/18 11:00:28;;;;;;;1.25;0.20;;;22.10;99.90;;;;;;5064764;28;20047;-80
2023/09/18 11:03:14;;;;;;;2.53;0.40;;;22.10;99.90;;;;;;5065075;28;20497;-81
2023/09/18 11:05:39;;;;;;;1.98;0.40;;;22.20;99.90;;;;;;5088172;28;20037;-80
2023/09/18 11:08:25;;;;;;;2.58;0.60;;;22.30;99.90;;;;;;5080283;28;20161;-81
2023/09/18 11:11:09;;;;;;;0.55;0.32;;;22.30;99.90;;;;;;5066415;28;20431;-82
2023/09/18 11:13:37;;;;;;;3.45;0.50;;;22.30;99.90;;;;;;5071267;28;20032;-79
2023/09/18 11:16:15;;;;;;;1.67;0.57;;;22.40;99.90;;;;;;5067379;28;20039;-79
2023/09/18 11:18:41;;;;;;;1.33;0.30;;;22.40;99.90;;;;;;5080645;28;20099;-81
2023/09/18 11:21:11;;;;;;;2.03;0.75;;;22.40;99.90;;;;;;5082515;28;20174;-80
2023/09/18 11:23:42;;;;;;;2.45;0.45;;;22.40;99.90;;;;;;5066458;28;20044;-80
2023/09/18 11:26:09;;;;;;;3.13;0.47;;;22.50;99.90;;;;;;5066047;28;20424;-80
2023/09/18 11:28:37;;;;;;;0.73;0.30;;;22.50;99.90;;;;;;5063747;28;20021;-80
2023/09/18 11:31:03;;;;;;;1.85;0.35;;;22.60;99.90;;;;;;5065402;28;20028;-80
2023/09/18 11:33:43;;;;;;;1.90;0.20;;;22.60;99.90;;;;;;5086759;28;20526;-80
2023/09/18 11:36:32;;;;;;;0.82;0.20;;;22.70;99.90;;;;;;5063349;28;20135;-80
2023/09/18 11:39:03;;;;;;;2.67;0.60;;;22.70;99.90;;;;;;5079334;28;20107;-80
2023/09/18 11:41:32;;;;;;;2.38;0.73;;;22.80;99.90;;;;;;5069773;28;20035;-81
2023/09/18 11:44:07;;;;;;;0.57;0.30;;;22.90;99.90;;;;;;5064028;28;20086;-79
2023/09/18 11:46:33;;;;;;;1.75;0.40;;;22.90;99.90;;;;;;5063043;28;20040;-79
2023/09/18 11:48:59;;;;;;;1.83;0.50;;;22.90;99.90;;;;;;5064182;28;20032;-82
2023/09/18 11:51:25;;;;;;;2.80;0.47;;;22.90;99.90;;;;;;5081556;28;20075;-79
2023/09/18 11:53:55;;;;;;;0.82;0.40;;;22.90;99.90;;;;;;5065124;28;20055;-79
2023/09/18 11:56:21;;;;;;;3.25;0.43;;;23.00;99.90;;;;;;5080796;28;20027;-79
2023/09/18 11:58:48;;;;;;;1.60;0.40;;;23.00;99.90;;;;;;5084319;28;20025;-79
2023/09/18 12:01:15;;;;;;;3.30;0.43;;;23.10;99.90;;;;;;5088082;28;20054;-80
2023/09/18 12:03:41;;;;;;;3.55;0.50;;;23.20;99.90;;;;;;5069690;28;20036;-80
2023/09/18 12:06:09;;;;;;;3.78;0.70;;;23.20;99.90;;;;;;5063285;28;20555;-79
2023/09/18 12:08:36;;;;;;;1.08;0.43;;;23.30;99.90;;;;;;5060996;28;20024;-79
2023/09/18 12:11:05;;;;;;;1.70;0.73;;;23.30;99.90;;;;;;5064570;28;20111;-80
2023/09/18 12:13:31;;;;;;;3.53;0.73;;;23.30;99.90;;;;;;5080523;28;20111;-78
2023/09/18 12:16:05;;;;;;;1.50;0.40;;;23.30;99.90;;;;;;5080483;28;20059;-79
2023/09/18 12:18:34;;;;;;;2.15;0.40;;;23.30;99.90;;;;;;5057452;28;20039;-78
2023/09/18 12:21:04;;;;;;;2.67;0.60;;;23.20;99.90;;;;;;5059509;28;20039;-79
2023/09/18 12:23:36;;;;;;;2.63;0.40;;;23.10;99.90;;;;;;5070263;28;20479;-79
2023/09/18 12:26:03;;;;;;;2.60;0.50;;;23.20;99.90;;;;;;5088002;28;20066;-79
2023/09/18 12:28:29;;;;;;;2.40;0.60;;;23.20;99.90;;;;;;5066573;28;20032;-79
2023/09/18 12:30:56;;;;;;;2.38;0.50;;;23.10;99.90;;;;;;5088790;28;20035;-79
2023/09/18 12:33:22;;;;;;;2.33;0.40;;;23.20;99.90;;;;;;5057860;28;20031;-78
2023/09/18 12:35:49;;;;;;;1.55;0.43;;;23.20;99.90;;;;;;5065609;28;20066;-80
2023/09/18 12:38:22;;;;;;;1.40;0.30;;;23.20;99.90;;;;;;5078646;28;20044;-79
2023/09/18 12:40:49;;;;;;;1.52;0.57;;;23.30;99.90;;;;;;5062827;28;20036;-79
2023/09/18 12:43:15;;;;;;;3.72;0.73;;;23.40;99.90;;;;;;5058313;28;20028;-79
2023/09/18 12:45:42;;;;;;;2.63;0.40;;;23.40;99.90;;;;;;5064646;28;20028;-81
2023/09/18 12:48:10;;;;;;;3.50;0.55;;;23.40;99.90;;;;;;5064986;28;20123;-78